Ana Sayfa
METAR-TAF:

METAR-TAF

Havaalanları :

Batesville, Arkansas, Amerika Birleşik Devletleri

Enlem: 35-44N, Boylam: 091-39W, yükseklik: 141 m

Güncel hava durumu gözlemi

Rapor saat 16:56 UTC de 1 saat ve 21 dakika önce yapıldı.
Rüzgar değişken yönden 3 kt
Sıcaklık 27°C
Nem 54%
Basınç 1018 hPa
Görüş mesafesi: 16.1 km
Açık gökyüzü

METAR: KBVX 121656Z AUTO VRB03KT 10SM CLR 27/17 A3005 RMK AO2 SLP174 T02670167

Saat: 13:17 (18:17 UTC)


TAF: eksik

4.000'den fazla havaalanı için hava durumu gözlemleri ve tahminleri (METAR ve TAF raporları).

Kullanılabilir istasyonlar harita üzerinde sarı ve kırmızı noktalarla gösterilir.

İstasyonun adını görmek için fareyi noktanın üzerinde gezdirin.

Sonrasında hava gözlem ve tahminlerini görmek için tıklayın.

Haritayı değiştirmek için: yaklaştırmak için siyah artı işaretli yeşil düğmeye ve uzaklaştırmak için de eksi işaretli düğmeye hızla tıklayın; bitişik haritalar için yeşil okları kullanın.


METAR-TAF: